Davis Vantage Pro 2 Aktiv Plus 6163EU 24h Lüftung - Paderborn Kernstadt
Wetterdaten: aktuell Sonntag, 10.05.2026 22:54
Datum Zeit Temp. I. Temp. A. Feuchte I. Feuchte A. Luftdruck Regen Wind Richtung Richtung Sonnenschein ET UV Solar Taupunkt Windchill Windböen
10.05.2026 22:54 21,6 °C 13,7 °C 44 % 76 % 1007,8 hPa 0,0 l/m² 5,0 km/h (1 Bft) N 357 ° 0 min 0,000 mm 0,0 UV-I 0 W/m² 9,5 °C 13,7 °C 12,9 km/h (3 Bft)
10.05.2026 21:54 21,7 °C 14,8 °C 44 % 74 % 1008,2 hPa 0,0 l/m² 3,8 km/h (1 Bft) N 353 ° 0 min 0,000 mm 0,0 UV-I 0 W/m² 10,2 °C 14,8 °C 9,7 km/h (2 Bft)
10.05.2026 20:53 22,7 °C 16,4 °C 41 % 68 % 1008,4 hPa 0,0 l/m² 13,4 km/h (3 Bft) N 5 ° 0 min 0,000 mm 0,0 UV-I 0 W/m² 10,5 °C 13,4 °C 19,3 km/h (3 Bft)
10.05.2026 19:54 23,1 °C 18,5 °C 40 % 60 % 1008,1 hPa 0,0 l/m² 9,0 km/h (2 Bft) N 7 ° 16 min 0,000 mm 0,0 UV-I 42 W/m² 10,6 °C 17,4 °C 16,1 km/h (3 Bft)
10.05.2026 18:54 23,4 °C 19,8 °C 39 % 57 % 1008,6 hPa 0,0 l/m² 5,5 km/h (2 Bft) N-NO 18 ° 30 min 0,000 mm 0,0 UV-I 162 W/m² 11,0 °C 19,8 °C 9,7 km/h (2 Bft)
10.05.2026 17:52 23,5 °C 20,1 °C 39 % 53 % 1009,2 hPa 0,0 l/m² 3,3 km/h (1 Bft) W-NW 302 ° 37 min 0,000 mm 0,0 UV-I 232 W/m² 10,2 °C 20,1 °C 11,3 km/h (2 Bft)
10.05.2026 16:51 23,2 °C 20,1 °C 40 % 53 % 1009,9 hPa 0,0 l/m² 2,4 km/h (1 Bft) W-NW 298 ° 38 min 0,000 mm 0,9 UV-I 323 W/m² 10,2 °C 20,1 °C 6,4 km/h (2 Bft)
10.05.2026 15:51 23,1 °C 20,3 °C 41 % 53 % 1010,6 hPa 0,0 l/m² 5,8 km/h (2 Bft) W-NW 293 ° 54 min 0,000 mm 1,6 UV-I 538 W/m² 10,4 °C 20,3 °C 16,1 km/h (3 Bft)
10.05.2026 14:51 22,6 °C 20,6 °C 40 % 54 % 1011,1 hPa 0,0 l/m² 2,1 km/h (1 Bft) N 8 ° 44 min 0,000 mm 1,8 UV-I 496 W/m² 11,0 °C 20,6 °C 4,8 km/h (1 Bft)
10.05.2026 13:51 22,7 °C 21,0 °C 39 % 52 % 1011,9 hPa 0,0 l/m² 12,3 km/h (2 Bft) W 270 ° 44 min 0,000 mm 3,0 UV-I 953 W/m² 10,8 °C 19,1 °C 17,7 km/h (3 Bft)
10.05.2026 12:51 22,1 °C 19,3 °C 43 % 58 % 1012,4 hPa 0,0 l/m² 0,9 km/h (0 Bft) N 350 ° 44 min 0,000 mm 1,8 UV-I 671 W/m² 10,8 °C 19,3 °C 8,0 km/h (2 Bft)
10.05.2026 11:52 21,3 °C 18,3 °C 45 % 63 % 1013,0 hPa 0,0 l/m² 1,7 km/h (1 Bft) W 264 ° 60 min 0,000 mm 1,8 UV-I 550 W/m² 11,1 °C 18,3 °C 4,8 km/h (1 Bft)
10.05.2026 10:50 20,8 °C 16,8 °C 46 % 66 % 1013,1 hPa 0,0 l/m² 3,0 km/h (1 Bft) W-NW 303 ° 60 min 0,000 mm 1,4 UV-I 427 W/m² 10,4 °C 16,8 °C 8,0 km/h (2 Bft)
10.05.2026 09:50 20,6 °C 15,6 °C 47 % 70 % 1013,4 hPa 0,0 l/m² 2,7 km/h (1 Bft) S 189 ° 60 min 0,000 mm 1,1 UV-I 410 W/m² 10,1 °C 15,6 °C 6,4 km/h (2 Bft)
10.05.2026 08:50 20,2 °C 14,6 °C 46 % 70 % 1013,6 hPa 0,0 l/m² 0,5 km/h (0 Bft) S 172 ° 56 min 0,000 mm 0,6 UV-I 262 W/m² 9,2 °C 14,6 °C 3,2 km/h (1 Bft)
10.05.2026 07:50 20,1 °C 12,8 °C 46 % 78 % 1013,6 hPa 0,0 l/m² 0,2 km/h (0 Bft) SO 126 ° 22 min 0,000 mm 0,0 UV-I 192 W/m² 9,1 °C 12,8 °C 1,6 km/h (1 Bft)
10.05.2026 06:50 20,4 °C 10,0 °C 45 % 84 % 1013,9 hPa 0,0 l/m² 0,0 km/h (0 Bft) O-SO 110 ° 6 min 0,000 mm 0,0 UV-I 93 W/m² 7,4 °C 10,0 °C 1,6 km/h (1 Bft)
10.05.2026 05:48 20,4 °C 9,0 °C 45 % 84 % 1014,2 hPa 0,0 l/m² 0,0 km/h (0 Bft) N 0 ° 0 min 0,000 mm 0,0 UV-I 0 W/m² 6,4 °C 9,0 °C 0,0 km/h (0 Bft)
10.05.2026 04:48 20,7 °C 10,1 °C 44 % 82 % 1014,1 hPa 0,0 l/m² 0,8 km/h (0 Bft) O 101 ° 0 min 0,000 mm 0,0 UV-I 0 W/m² 7,2 °C 10,1 °C 3,2 km/h (1 Bft)
10.05.2026 03:48 20,8 °C 11,0 °C 44 % 80 % 1014,4 hPa 0,0 l/m² 0,0 km/h (0 Bft) N 0 ° 0 min 0,000 mm 0,0 UV-I 0 W/m² 7,7 °C 11,0 °C 0,0 km/h (0 Bft)
10.05.2026 02:48 21,1 °C 11,3 °C 43 % 79 % 1014,6 hPa 0,0 l/m² 0,0 km/h (0 Bft) N 0 ° 0 min 0,000 mm 0,0 UV-I 0 W/m² 7,8 °C 11,3 °C 0,0 km/h (0 Bft)
10.05.2026 01:48 21,3 °C 11,6 °C 43 % 78 % 1015,3 hPa 0,0 l/m² 1,5 km/h (1 Bft) O 86 ° 0 min 0,000 mm 0,0 UV-I 0 W/m² 7,9 °C 11,6 °C 4,8 km/h (1 Bft)
10.05.2026 00:48 21,6 °C 12,4 °C 42 % 76 % 1015,7 hPa 0,0 l/m² 7,4 km/h (2 Bft) SO 135 ° 0 min 0,000 mm 0,0 UV-I 0 W/m² 8,3 °C 11,7 °C 14,5 km/h (3 Bft)
09.05.2026 23:44 21,6 °C 13,1 °C 42 % 73 % 1016,0 hPa 0,0 l/m² 4,8 km/h (1 Bft) O 91 ° 0 min 0,000 mm 0,0 UV-I 0 W/m² 8,4 °C 13,1 °C 11,3 km/h (2 Bft)
09.05.2026 23:00 21,8 °C 13,3 °C 41 % 72 % 1016,4 hPa 0,0 l/m² 0,9 km/h (0 Bft) O 96 ° 0 min 0,000 mm 0,0 UV-I 0 W/m² 8,4 °C 13,3 °C 4,8 km/h (1 Bft)
_ Min-Zeit 08:16 05:52 14:17 14:23 22:38 - 02:00 - - - - - - 05:52 05:52 01:58
Minimum _ 20,0 °C 8,9 °C 38 % 48 % 1007,8 hPa - 0,0 km/h (0 Bft) - - - - - - 6,3 °C 8,9 °C 0,0 km/h (0 Bft)
_ Max-Zeit 17:30 17:18 09:46 06:06 23:00 23:00 20:53 - - 11:48 23:00 13:31 13:49 13:29 17:20 00:18
Maximum _ 23,7 °C 21,5 °C 47 % 85 % 1016,4 hPa 0,0 l/m² 13,4 km/h
N (3 Bft)
- - 4 min 0,000 mm 3,0 UV-I 991 W/m² 11,4 °C 21,5 °C 24,1 km/h
O-SO (4 Bft)
Durchschnitt _ 21,7 °C 15,4 °C 43 % 68 % 1012,6 hPa #0,0 l/m² 3,5 km/h (1 Bft) N - #9:35 h #0,000 mm 1,6 UV-I 361 W/m² 9,3 °C 15,3 °C 8,0 km/h (2 Bft)
© Andreas P. Günther